sensor_id;sensor_type;location;lat;lon;timestamp;P1;durP1;ratioP1;P2;durP2;ratioP2
62588;SDS011;58504;48.770;9.148;2023-02-15T00:01:20;2.58;;;2.25;;
62588;SDS011;58504;48.770;9.148;2023-02-15T00:03:47;2.15;;;1.98;;
62588;SDS011;58504;48.770;9.148;2023-02-15T00:06:14;3.47;;;2.50;;
62588;SDS011;58504;48.770;9.148;2023-02-15T00:08:41;3.95;;;2.28;;
62588;SDS011;58504;48.770;9.148;2023-02-15T00:11:09;2.00;;;1.80;;
62588;SDS011;58504;48.770;9.148;2023-02-15T00:13:39;2.35;;;2.15;;
62588;SDS011;58504;48.770;9.148;2023-02-15T00:16:07;2.97;;;2.53;;
62588;SDS011;58504;48.770;9.148;2023-02-15T00:18:35;2.10;;;2.00;;
62588;SDS011;58504;48.770;9.148;2023-02-15T00:21:03;3.42;;;2.55;;
62588;SDS011;58504;48.770;9.148;2023-02-15T00:23:31;5.80;;;2.20;;
62588;SDS011;58504;48.770;9.148;2023-02-15T00:26:05;2.22;;;2.13;;
62588;SDS011;58504;48.770;9.148;2023-02-15T00:28:32;2.10;;;2.00;;
62588;SDS011;58504;48.770;9.148;2023-02-15T00:31:04;2.45;;;2.05;;
62588;SDS011;58504;48.770;9.148;2023-02-15T00:35:58;2.50;;;2.30;;
62588;SDS011;58504;48.770;9.148;2023-02-15T00:38:26;3.05;;;2.72;;
62588;SDS011;58504;48.770;9.148;2023-02-15T00:40:54;2.40;;;2.20;;
62588;SDS011;58504;48.770;9.148;2023-02-15T00:43:21;2.92;;;2.45;;
62588;SDS011;58504;48.770;9.148;2023-02-15T00:45:48;2.20;;;2.00;;
62588;SDS011;58504;48.770;9.148;2023-02-15T00:48:16;1.95;;;1.83;;
62588;SDS011;58504;48.770;9.148;2023-02-15T00:50:44;2.75;;;2.08;;
62588;SDS011;58504;48.770;9.148;2023-02-15T00:53:11;2.33;;;2.10;;
62588;SDS011;58504;48.770;9.148;2023-02-15T00:55:38;2.45;;;2.25;;
62588;SDS011;58504;48.770;9.148;2023-02-15T00:58:05;2.30;;;2.10;;
62588;SDS011;58504;48.770;9.148;2023-02-15T01:00:32;2.17;;;1.98;;
62588;SDS011;58504;48.770;9.148;2023-02-15T01:02:59;2.90;;;1.98;;
62588;SDS011;58504;48.770;9.148;2023-02-15T01:05:27;2.22;;;1.83;;
62588;SDS011;58504;48.770;9.148;2023-02-15T01:07:55;2.65;;;2.40;;
62588;SDS011;58504;48.770;9.148;2023-02-15T01:10:22;2.55;;;2.35;;
62588;SDS011;58504;48.770;9.148;2023-02-15T01:12:50;3.63;;;2.15;;
62588;SDS011;58504;48.770;9.148;2023-02-15T01:15:17;1.98;;;1.88;;
62588;SDS011;58504;48.770;9.148;2023-02-15T01:17:43;2.30;;;2.10;;
62588;SDS011;58504;48.770;9.148;2023-02-15T01:20:16;3.13;;;2.78;;
62588;SDS011;58504;48.770;9.148;2023-02-15T01:22:44;1.80;;;1.67;;
62588;SDS011;58504;48.770;9.148;2023-02-15T01:25:11;3.95;;;2.33;;
62588;SDS011;58504;48.770;9.148;2023-02-15T01:27:37;2.30;;;2.10;;
62588;SDS011;58504;48.770;9.148;2023-02-15T01:30:05;2.25;;;2.05;;
62588;SDS011;58504;48.770;9.148;2023-02-15T01:32:33;2.28;;;2.08;;
62588;SDS011;58504;48.770;9.148;2023-02-15T01:35:00;2.80;;;2.22;;
62588;SDS011;58504;48.770;9.148;2023-02-15T01:37:29;2.35;;;2.25;;
62588;SDS011;58504;48.770;9.148;2023-02-15T01:39:57;2.22;;;2.03;;
62588;SDS011;58504;48.770;9.148;2023-02-15T01:42:25;4.80;;;2.42;;
62588;SDS011;58504;48.770;9.148;2023-02-15T01:44:54;8.00;;;2.33;;
62588;SDS011;58504;48.770;9.148;2023-02-15T01:47:23;2.72;;;2.53;;
62588;SDS011;58504;48.770;9.148;2023-02-15T01:49:58;2.67;;;2.47;;
62588;SDS011;58504;48.770;9.148;2023-02-15T01:52:29;2.08;;;1.92;;
62588;SDS011;58504;48.770;9.148;2023-02-15T01:54:57;2.97;;;2.10;;
62588;SDS011;58504;48.770;9.148;2023-02-15T01:57:25;3.58;;;2.63;;
62588;SDS011;58504;48.770;9.148;2023-02-15T01:59:53;2.10;;;1.92;;
62588;SDS011;58504;48.770;9.148;2023-02-15T02:02:25;2.40;;;2.22;;
62588;SDS011;58504;48.770;9.148;2023-02-15T02:04:53;2.33;;;2.13;;
62588;SDS011;58504;48.770;9.148;2023-02-15T02:07:24;2.15;;;2.03;;
62588;SDS011;58504;48.770;9.148;2023-02-15T02:09:54;3.90;;;2.42;;
62588;SDS011;58504;48.770;9.148;2023-02-15T02:12:22;2.40;;;2.20;;
62588;SDS011;58504;48.770;9.148;2023-02-15T02:14:51;2.20;;;2.00;;
62588;SDS011;58504;48.770;9.148;2023-02-15T02:17:21;2.10;;;2.00;;
62588;SDS011;58504;48.770;9.148;2023-02-15T02:19:59;2.08;;;1.98;;
62588;SDS011;58504;48.770;9.148;2023-02-15T02:25:57;2.00;;;1.90;;
62588;SDS011;58504;48.770;9.148;2023-02-15T02:31:58;2.35;;;2.13;;
62588;SDS011;58504;48.770;9.148;2023-02-15T02:34:59;2.15;;;2.05;;
62588;SDS011;58504;48.770;9.148;2023-02-15T02:37:34;2.13;;;2.03;;
62588;SDS011;58504;48.770;9.148;2023-02-15T02:40:13;2.65;;;2.45;;
62588;SDS011;58504;48.770;9.148;2023-02-15T02:42:47;2.33;;;2.05;;
62588;SDS011;58504;48.770;9.148;2023-02-15T02:45:20;3.20;;;2.50;;
62588;SDS011;58504;48.770;9.148;2023-02-15T02:47:52;1.98;;;1.88;;
62588;SDS011;58504;48.770;9.148;2023-02-15T02:52:55;2.28;;;2.05;;
62588;SDS011;58504;48.770;9.148;2023-02-15T02:55:24;1.98;;;1.88;;
62588;SDS011;58504;48.770;9.148;2023-02-15T02:57:55;2.42;;;2.22;;
62588;SDS011;58504;48.770;9.148;2023-02-15T03:00:27;2.53;;;2.40;;
62588;SDS011;58504;48.770;9.148;2023-02-15T03:02:59;2.75;;;2.40;;
62588;SDS011;58504;48.770;9.148;2023-02-15T03:05:31;2.00;;;1.90;;
62588;SDS011;58504;48.770;9.148;2023-02-15T03:08:00;2.20;;;2.10;;
62588;SDS011;58504;48.770;9.148;2023-02-15T03:10:31;2.40;;;2.20;;
62588;SDS011;58504;48.770;9.148;2023-02-15T03:13:00;2.08;;;1.98;;
62588;SDS011;58504;48.770;9.148;2023-02-15T03:15:29;2.30;;;2.20;;
62588;SDS011;58504;48.770;9.148;2023-02-15T03:18:11;2.30;;;2.13;;
62588;SDS011;58504;48.770;9.148;2023-02-15T03:20:41;2.70;;;2.40;;
62588;SDS011;58504;48.770;9.148;2023-02-15T03:23:10;2.70;;;2.50;;
62588;SDS011;58504;48.770;9.148;2023-02-15T03:25:40;2.35;;;2.15;;
62588;SDS011;58504;48.770;9.148;2023-02-15T03:28:11;2.33;;;2.20;;
62588;SDS011;58504;48.770;9.148;2023-02-15T03:30:42;2.33;;;2.13;;
62588;SDS011;58504;48.770;9.148;2023-02-15T03:33:12;2.28;;;2.17;;
62588;SDS011;58504;48.770;9.148;2023-02-15T03:35:43;2.50;;;2.30;;
62588;SDS011;58504;48.770;9.148;2023-02-15T03:38:15;2.35;;;2.15;;
62588;SDS011;58504;48.770;9.148;2023-02-15T03:40:46;2.58;;;2.38;;
62588;SDS011;58504;48.770;9.148;2023-02-15T03:43:32;2.15;;;1.92;;
62588;SDS011;58504;48.770;9.148;2023-02-15T03:46:11;2.60;;;2.40;;
62588;SDS011;58504;48.770;9.148;2023-02-15T03:48:42;2.75;;;2.55;;
62588;SDS011;58504;48.770;9.148;2023-02-15T03:51:14;3.10;;;2.65;;
62588;SDS011;58504;48.770;9.148;2023-02-15T03:53:59;2.75;;;2.55;;
62588;SDS011;58504;48.770;9.148;2023-02-15T03:56:28;2.50;;;2.30;;
62588;SDS011;58504;48.770;9.148;2023-02-15T03:58:54;2.15;;;2.05;;
62588;SDS011;58504;48.770;9.148;2023-02-15T04:01:39;2.70;;;2.50;;
62588;SDS011;58504;48.770;9.148;2023-02-15T04:04:32;2.08;;;1.98;;
62588;SDS011;58504;48.770;9.148;2023-02-15T04:07:03;2.58;;;2.38;;
62588;SDS011;58504;48.770;9.148;2023-02-15T04:09:31;2.20;;;2.10;;
62588;SDS011;58504;48.770;9.148;2023-02-15T04:12:16;2.42;;;2.33;;
62588;SDS011;58504;48.770;9.148;2023-02-15T04:14:43;2.50;;;2.30;;
62588;SDS011;58504;48.770;9.148;2023-02-15T04:17:27;2.30;;;2.20;;
62588;SDS011;58504;48.770;9.148;2023-02-15T04:19:54;2.10;;;2.00;;
62588;SDS011;58504;48.770;9.148;2023-02-15T04:22:39;2.35;;;2.20;;
62588;SDS011;58504;48.770;9.148;2023-02-15T04:25:24;2.72;;;2.38;;
62588;SDS011;58504;48.770;9.148;2023-02-15T04:27:51;3.08;;;2.75;;
62588;SDS011;58504;48.770;9.148;2023-02-15T04:30:20;2.10;;;2.00;;
62588;SDS011;58504;48.770;9.148;2023-02-15T04:32:49;2.28;;;2.10;;
62588;SDS011;58504;48.770;9.148;2023-02-15T04:35:16;2.22;;;2.13;;
62588;SDS011;58504;48.770;9.148;2023-02-15T04:37:44;2.58;;;2.40;;
62588;SDS011;58504;48.770;9.148;2023-02-15T04:40:13;2.63;;;2.42;;
62588;SDS011;58504;48.770;9.148;2023-02-15T04:42:40;2.58;;;2.38;;
62588;SDS011;58504;48.770;9.148;2023-02-15T04:45:07;2.70;;;2.50;;
62588;SDS011;58504;48.770;9.148;2023-02-15T04:47:34;2.55;;;2.35;;
62588;SDS011;58504;48.770;9.148;2023-02-15T04:50:01;2.20;;;2.08;;
62588;SDS011;58504;48.770;9.148;2023-02-15T04:52:28;2.88;;;2.63;;
62588;SDS011;58504;48.770;9.148;2023-02-15T04:54:56;2.38;;;2.20;;
62588;SDS011;58504;48.770;9.148;2023-02-15T04:57:23;2.67;;;2.47;;
62588;SDS011;58504;48.770;9.148;2023-02-15T04:59:50;2.47;;;2.25;;
62588;SDS011;58504;48.770;9.148;2023-02-15T05:02:17;2.40;;;2.20;;
62588;SDS011;58504;48.770;9.148;2023-02-15T05:04:44;2.65;;;2.45;;
62588;SDS011;58504;48.770;9.148;2023-02-15T05:07:10;2.38;;;2.25;;
62588;SDS011;58504;48.770;9.148;2023-02-15T05:09:37;2.70;;;2.50;;
62588;SDS011;58504;48.770;9.148;2023-02-15T05:12:05;3.25;;;2.08;;
62588;SDS011;58504;48.770;9.148;2023-02-15T05:14:32;2.28;;;2.08;;
62588;SDS011;58504;48.770;9.148;2023-02-15T05:16:59;2.05;;;1.95;;
62588;SDS011;58504;48.770;9.148;2023-02-15T05:19:28;2.15;;;2.05;;
62588;SDS011;58504;48.770;9.148;2023-02-15T05:21:55;2.80;;;2.60;;
62588;SDS011;58504;48.770;9.148;2023-02-15T05:24:22;2.83;;;2.63;;
62588;SDS011;58504;48.770;9.148;2023-02-15T05:27:08;2.70;;;2.50;;
62588;SDS011;58504;48.770;9.148;2023-02-15T05:29:54;2.60;;;2.40;;
62588;SDS011;58504;48.770;9.148;2023-02-15T05:32:21;2.90;;;2.70;;
62588;SDS011;58504;48.770;9.148;2023-02-15T05:34:47;2.47;;;2.28;;
62588;SDS011;58504;48.770;9.148;2023-02-15T05:37:14;2.40;;;2.20;;
62588;SDS011;58504;48.770;9.148;2023-02-15T05:39:41;2.88;;;2.60;;
62588;SDS011;58504;48.770;9.148;2023-02-15T05:42:09;2.33;;;2.13;;
62588;SDS011;58504;48.770;9.148;2023-02-15T05:44:36;2.65;;;2.45;;
62588;SDS011;58504;48.770;9.148;2023-02-15T05:47:03;1.92;;;1.83;;
62588;SDS011;58504;48.770;9.148;2023-02-15T05:49:32;2.67;;;2.47;;
62588;SDS011;58504;48.770;9.148;2023-02-15T05:51:58;2.45;;;2.25;;
62588;SDS011;58504;48.770;9.148;2023-02-15T05:54:25;2.00;;;1.90;;
62588;SDS011;58504;48.770;9.148;2023-02-15T05:56:52;2.20;;;2.10;;
62588;SDS011;58504;48.770;9.148;2023-02-15T05:59:20;2.17;;;2.08;;
62588;SDS011;58504;48.770;9.148;2023-02-15T06:01:47;2.65;;;2.45;;
62588;SDS011;58504;48.770;9.148;2023-02-15T06:04:14;1.80;;;1.70;;
62588;SDS011;58504;48.770;9.148;2023-02-15T06:06:40;2.20;;;2.10;;
62588;SDS011;58504;48.770;9.148;2023-02-15T06:09:07;2.13;;;2.03;;
62588;SDS011;58504;48.770;9.148;2023-02-15T06:11:39;2.30;;;2.10;;
62588;SDS011;58504;48.770;9.148;2023-02-15T06:14:06;2.72;;;2.45;;
62588;SDS011;58504;48.770;9.148;2023-02-15T06:16:34;2.13;;;2.03;;
62588;SDS011;58504;48.770;9.148;2023-02-15T06:19:01;2.75;;;2.55;;
62588;SDS011;58504;48.770;9.148;2023-02-15T06:21:28;3.38;;;2.70;;
62588;SDS011;58504;48.770;9.148;2023-02-15T06:23:55;1.98;;;1.88;;
62588;SDS011;58504;48.770;9.148;2023-02-15T06:26:22;2.60;;;2.40;;
62588;SDS011;58504;48.770;9.148;2023-02-15T06:28:49;2.45;;;2.25;;
62588;SDS011;58504;48.770;9.148;2023-02-15T06:31:16;2.58;;;2.38;;
62588;SDS011;58504;48.770;9.148;2023-02-15T06:33:44;2.42;;;2.22;;
62588;SDS011;58504;48.770;9.148;2023-02-15T06:36:10;2.33;;;2.20;;
62588;SDS011;58504;48.770;9.148;2023-02-15T06:38:38;2.08;;;1.98;;
62588;SDS011;58504;48.770;9.148;2023-02-15T06:41:04;2.60;;;2.40;;
62588;SDS011;58504;48.770;9.148;2023-02-15T06:43:31;2.63;;;2.42;;
62588;SDS011;58504;48.770;9.148;2023-02-15T06:45:59;2.70;;;2.50;;
62588;SDS011;58504;48.770;9.148;2023-02-15T06:48:25;1.90;;;1.80;;
62588;SDS011;58504;48.770;9.148;2023-02-15T06:50:54;2.38;;;2.17;;
62588;SDS011;58504;48.770;9.148;2023-02-15T06:53:20;2.35;;;2.20;;
62588;SDS011;58504;48.770;9.148;2023-02-15T06:55:47;3.00;;;2.78;;
62588;SDS011;58504;48.770;9.148;2023-02-15T06:58:14;3.25;;;2.03;;
62588;SDS011;58504;48.770;9.148;2023-02-15T07:00:40;2.05;;;1.95;;
62588;SDS011;58504;48.770;9.148;2023-02-15T07:03:07;2.30;;;2.08;;
62588;SDS011;58504;48.770;9.148;2023-02-15T07:05:34;2.17;;;2.03;;
62588;SDS011;58504;48.770;9.148;2023-02-15T07:08:02;2.28;;;2.13;;
62588;SDS011;58504;48.770;9.148;2023-02-15T07:10:29;2.85;;;2.65;;
62588;SDS011;58504;48.770;9.148;2023-02-15T07:12:56;2.13;;;2.00;;
62588;SDS011;58504;48.770;9.148;2023-02-15T07:15:22;2.65;;;2.53;;
62588;SDS011;58504;48.770;9.148;2023-02-15T07:17:49;1.92;;;1.83;;
62588;SDS011;58504;48.770;9.148;2023-02-15T07:20:17;2.38;;;2.28;;
62588;SDS011;58504;48.770;9.148;2023-02-15T07:22:44;2.28;;;2.17;;
62588;SDS011;58504;48.770;9.148;2023-02-15T07:25:13;2.08;;;1.98;;
62588;SDS011;58504;48.770;9.148;2023-02-15T07:27:40;2.75;;;2.53;;
62588;SDS011;58504;48.770;9.148;2023-02-15T07:30:09;1.90;;;1.80;;
62588;SDS011;58504;48.770;9.148;2023-02-15T07:32:37;2.05;;;1.95;;
62588;SDS011;58504;48.770;9.148;2023-02-15T07:35:24;2.28;;;2.08;;
62588;SDS011;58504;48.770;9.148;2023-02-15T07:37:51;2.33;;;2.13;;
62588;SDS011;58504;48.770;9.148;2023-02-15T07:40:19;2.20;;;1.80;;
62588;SDS011;58504;48.770;9.148;2023-02-15T07:42:48;5.53;;;2.50;;
62588;SDS011;58504;48.770;9.148;2023-02-15T07:45:16;2.47;;;2.28;;
62588;SDS011;58504;48.770;9.148;2023-02-15T07:47:43;3.35;;;2.33;;
62588;SDS011;58504;48.770;9.148;2023-02-15T07:50:10;5.03;;;2.00;;
62588;SDS011;58504;48.770;9.148;2023-02-15T07:52:36;7.43;;;2.92;;
62588;SDS011;58504;48.770;9.148;2023-02-15T07:55:03;8.90;;;2.22;;
62588;SDS011;58504;48.770;9.148;2023-02-15T07:57:32;4.28;;;2.20;;
62588;SDS011;58504;48.770;9.148;2023-02-15T07:59:58;3.63;;;2.53;;
62588;SDS011;58504;48.770;9.148;2023-02-15T08:02:25;4.05;;;2.10;;
62588;SDS011;58504;48.770;9.148;2023-02-15T08:04:53;3.95;;;2.58;;
62588;SDS011;58504;48.770;9.148;2023-02-15T08:07:20;4.07;;;2.58;;
62588;SDS011;58504;48.770;9.148;2023-02-15T08:09:47;4.18;;;2.20;;
62588;SDS011;58504;48.770;9.148;2023-02-15T08:12:14;5.30;;;2.30;;
62588;SDS011;58504;48.770;9.148;2023-02-15T08:14:42;2.72;;;2.53;;
62588;SDS011;58504;48.770;9.148;2023-02-15T08:17:08;2.38;;;2.17;;
62588;SDS011;58504;48.770;9.148;2023-02-15T08:19:35;2.38;;;2.15;;
62588;SDS011;58504;48.770;9.148;2023-02-15T08:22:02;7.57;;;2.90;;
62588;SDS011;58504;48.770;9.148;2023-02-15T08:24:32;8.40;;;2.63;;
62588;SDS011;58504;48.770;9.148;2023-02-15T08:27:01;2.75;;;2.50;;
62588;SDS011;58504;48.770;9.148;2023-02-15T08:29:29;2.88;;;2.65;;
62588;SDS011;58504;48.770;9.148;2023-02-15T08:31:59;3.60;;;2.35;;
62588;SDS011;58504;48.770;9.148;2023-02-15T08:34:28;2.78;;;2.58;;
62588;SDS011;58504;48.770;9.148;2023-02-15T08:36:55;2.53;;;2.33;;
62588;SDS011;58504;48.770;9.148;2023-02-15T08:39:22;5.13;;;2.30;;
62588;SDS011;58504;48.770;9.148;2023-02-15T08:41:49;3.08;;;2.88;;
62588;SDS011;58504;48.770;9.148;2023-02-15T08:44:17;4.70;;;2.10;;
62588;SDS011;58504;48.770;9.148;2023-02-15T08:46:45;3.00;;;2.63;;
62588;SDS011;58504;48.770;9.148;2023-02-15T08:49:16;2.63;;;2.42;;
62588;SDS011;58504;48.770;9.148;2023-02-15T08:51:45;3.13;;;2.92;;
62588;SDS011;58504;48.770;9.148;2023-02-15T08:54:13;2.20;;;2.00;;
62588;SDS011;58504;48.770;9.148;2023-02-15T08:56:42;3.17;;;2.50;;
62588;SDS011;58504;48.770;9.148;2023-02-15T08:59:11;2.53;;;2.30;;
62588;SDS011;58504;48.770;9.148;2023-02-15T09:01:39;4.30;;;2.90;;
62588;SDS011;58504;48.770;9.148;2023-02-15T09:04:06;2.30;;;2.17;;
62588;SDS011;58504;48.770;9.148;2023-02-15T09:06:36;2.78;;;2.58;;
62588;SDS011;58504;48.770;9.148;2023-02-15T09:09:04;2.28;;;2.17;;
62588;SDS011;58504;48.770;9.148;2023-02-15T09:11:33;2.17;;;2.03;;
62588;SDS011;58504;48.770;9.148;2023-02-15T09:14:01;3.47;;;2.67;;
62588;SDS011;58504;48.770;9.148;2023-02-15T09:16:30;3.05;;;2.85;;
62588;SDS011;58504;48.770;9.148;2023-02-15T09:18:58;2.38;;;2.20;;
62588;SDS011;58504;48.770;9.148;2023-02-15T09:21:27;3.40;;;2.47;;
62588;SDS011;58504;48.770;9.148;2023-02-15T09:23:57;2.35;;;2.15;;
62588;SDS011;58504;48.770;9.148;2023-02-15T09:26:25;2.75;;;2.55;;
62588;SDS011;58504;48.770;9.148;2023-02-15T09:28:55;3.00;;;2.10;;
62588;SDS011;58504;48.770;9.148;2023-02-15T09:31:23;2.55;;;2.35;;
62588;SDS011;58504;48.770;9.148;2023-02-15T09:33:51;4.95;;;2.72;;
62588;SDS011;58504;48.770;9.148;2023-02-15T09:36:19;2.58;;;2.38;;
62588;SDS011;58504;48.770;9.148;2023-02-15T09:38:47;2.17;;;2.08;;
62588;SDS011;58504;48.770;9.148;2023-02-15T09:41:23;2.53;;;2.33;;
62588;SDS011;58504;48.770;9.148;2023-02-15T09:44:14;2.38;;;2.17;;
62588;SDS011;58504;48.770;9.148;2023-02-15T09:46:53;2.40;;;2.30;;
62588;SDS011;58504;48.770;9.148;2023-02-15T09:49:33;3.75;;;2.45;;
62588;SDS011;58504;48.770;9.148;2023-02-15T09:52:14;2.90;;;2.47;;
62588;SDS011;58504;48.770;9.148;2023-02-15T09:54:56;2.35;;;2.25;;
62588;SDS011;58504;48.770;9.148;2023-02-15T09:57:33;2.08;;;1.98;;
62588;SDS011;58504;48.770;9.148;2023-02-15T10:00:12;4.22;;;2.60;;
62588;SDS011;58504;48.770;9.148;2023-02-15T10:02:57;2.70;;;2.50;;
62588;SDS011;58504;48.770;9.148;2023-02-15T10:06:00;10.73;;;9.63;;
62588;SDS011;58504;48.770;9.148;2023-02-15T10:08:48;15.05;;;11.35;;
62588;SDS011;58504;48.770;9.148;2023-02-15T10:11:24;19.88;;;13.32;;
62588;SDS011;58504;48.770;9.148;2023-02-15T10:14:12;18.17;;;12.55;;
62588;SDS011;58504;48.770;9.148;2023-02-15T10:17:04;16.60;;;12.10;;
62588;SDS011;58504;48.770;9.148;2023-02-15T10:19:40;17.42;;;13.30;;
62588;SDS011;58504;48.770;9.148;2023-02-15T10:22:16;16.20;;;12.40;;
62588;SDS011;58504;48.770;9.148;2023-02-15T10:25:00;22.00;;;13.80;;
62588;SDS011;58504;48.770;9.148;2023-02-15T10:27:37;15.75;;;12.68;;
62588;SDS011;58504;48.770;9.148;2023-02-15T10:30:13;19.55;;;13.20;;
62588;SDS011;58504;48.770;9.148;2023-02-15T10:32:45;18.63;;;12.93;;
62588;SDS011;58504;48.770;9.148;2023-02-15T10:35:23;16.45;;;12.65;;
62588;SDS011;58504;48.770;9.148;2023-02-15T10:38:10;17.40;;;12.88;;
62588;SDS011;58504;48.770;9.148;2023-02-15T10:40:46;24.50;;;13.98;;
62588;SDS011;58504;48.770;9.148;2023-02-15T10:43:37;14.40;;;11.15;;
62588;SDS011;58504;48.770;9.148;2023-02-15T10:46:19;9.85;;;7.75;;
62588;SDS011;58504;48.770;9.148;2023-02-15T10:49:01;8.95;;;6.82;;
62588;SDS011;58504;48.770;9.148;2023-02-15T10:51:43;6.95;;;6.18;;
62588;SDS011;58504;48.770;9.148;2023-02-15T10:54:21;6.47;;;5.78;;
62588;SDS011;58504;48.770;9.148;2023-02-15T10:57:00;5.32;;;4.90;;
62588;SDS011;58504;48.770;9.148;2023-02-15T10:59:44;5.90;;;5.30;;
62588;SDS011;58504;48.770;9.148;2023-02-15T11:02:32;4.78;;;3.88;;
62588;SDS011;58504;48.770;9.148;2023-02-15T11:05:27;4.78;;;4.40;;
62588;SDS011;58504;48.770;9.148;2023-02-15T11:08:04;5.35;;;4.95;;
62588;SDS011;58504;48.770;9.148;2023-02-15T11:10:34;4.85;;;4.35;;
62588;SDS011;58504;48.770;9.148;2023-02-15T11:13:05;5.07;;;4.57;;
62588;SDS011;58504;48.770;9.148;2023-02-15T11:15:39;4.53;;;4.22;;
62588;SDS011;58504;48.770;9.148;2023-02-15T11:18:11;4.85;;;4.45;;
62588;SDS011;58504;48.770;9.148;2023-02-15T11:20:43;4.88;;;4.20;;
62588;SDS011;58504;48.770;9.148;2023-02-15T11:23:16;3.85;;;3.50;;
62588;SDS011;58504;48.770;9.148;2023-02-15T11:25:44;7.93;;;3.88;;
62588;SDS011;58504;48.770;9.148;2023-02-15T11:28:16;4.03;;;3.72;;
62588;SDS011;58504;48.770;9.148;2023-02-15T11:30:49;3.35;;;3.15;;
62588;SDS011;58504;48.770;9.148;2023-02-15T11:33:22;8.05;;;5.28;;
62588;SDS011;58504;48.770;9.148;2023-02-15T11:35:53;5.93;;;4.85;;
62588;SDS011;58504;48.770;9.148;2023-02-15T11:38:26;6.60;;;4.38;;
62588;SDS011;58504;48.770;9.148;2023-02-15T11:40:59;3.35;;;3.10;;
62588;SDS011;58504;48.770;9.148;2023-02-15T11:43:29;5.20;;;2.67;;
62588;SDS011;58504;48.770;9.148;2023-02-15T11:46:00;4.43;;;3.30;;
62588;SDS011;58504;48.770;9.148;2023-02-15T11:48:28;4.07;;;3.70;;
62588;SDS011;58504;48.770;9.148;2023-02-15T11:50:57;5.63;;;3.78;;
62588;SDS011;58504;48.770;9.148;2023-02-15T11:53:24;3.08;;;2.80;;
62588;SDS011;58504;48.770;9.148;2023-02-15T11:55:54;3.60;;;3.30;;
62588;SDS011;58504;48.770;9.148;2023-02-15T11:58:23;4.20;;;3.80;;
62588;SDS011;58504;48.770;9.148;2023-02-15T12:00:56;3.85;;;3.28;;
62588;SDS011;58504;48.770;9.148;2023-02-15T12:03:30;3.53;;;3.22;;
62588;SDS011;58504;48.770;9.148;2023-02-15T12:06:11;3.50;;;3.20;;
62588;SDS011;58504;48.770;9.148;2023-02-15T12:08:46;3.80;;;3.50;;
62588;SDS011;58504;48.770;9.148;2023-02-15T12:11:19;3.15;;;2.95;;
62588;SDS011;58504;48.770;9.148;2023-02-15T12:13:55;3.92;;;3.60;;
62588;SDS011;58504;48.770;9.148;2023-02-15T12:18:52;3.92;;;3.53;;
62588;SDS011;58504;48.770;9.148;2023-02-15T12:21:24;3.10;;;2.80;;
62588;SDS011;58504;48.770;9.148;2023-02-15T12:23:55;3.42;;;3.13;;
62588;SDS011;58504;48.770;9.148;2023-02-15T12:26:24;3.30;;;3.00;;
62588;SDS011;58504;48.770;9.148;2023-02-15T12:28:52;4.75;;;3.75;;
62588;SDS011;58504;48.770;9.148;2023-02-15T12:31:23;3.10;;;2.90;;
62588;SDS011;58504;48.770;9.148;2023-02-15T12:33:55;3.22;;;2.90;;
62588;SDS011;58504;48.770;9.148;2023-02-15T12:36:29;2.88;;;2.67;;
62588;SDS011;58504;48.770;9.148;2023-02-15T12:39:05;3.60;;;3.30;;
62588;SDS011;58504;48.770;9.148;2023-02-15T12:41:44;3.80;;;3.33;;
62588;SDS011;58504;48.770;9.148;2023-02-15T12:44:15;3.85;;;3.05;;
62588;SDS011;58504;48.770;9.148;2023-02-15T12:46:48;3.45;;;3.20;;
62588;SDS011;58504;48.770;9.148;2023-02-15T12:49:25;3.63;;;3.28;;
62588;SDS011;58504;48.770;9.148;2023-02-15T12:51:53;6.35;;;3.15;;
62588;SDS011;58504;48.770;9.148;2023-02-15T12:54:27;3.25;;;2.95;;
62588;SDS011;58504;48.770;9.148;2023-02-15T12:56:57;3.22;;;3.00;;
62588;SDS011;58504;48.770;9.148;2023-02-15T12:59:24;3.20;;;3.00;;
62588;SDS011;58504;48.770;9.148;2023-02-15T13:01:51;3.72;;;3.33;;
62588;SDS011;58504;48.770;9.148;2023-02-15T13:04:21;3.22;;;2.92;;
62588;SDS011;58504;48.770;9.148;2023-02-15T13:06:52;3.25;;;2.97;;
62588;SDS011;58504;48.770;9.148;2023-02-15T13:09:24;3.08;;;2.65;;
62588;SDS011;58504;48.770;9.148;2023-02-15T13:12:08;3.30;;;3.00;;
62588;SDS011;58504;48.770;9.148;2023-02-15T13:14:43;3.50;;;2.83;;
62588;SDS011;58504;48.770;9.148;2023-02-15T13:17:11;3.42;;;2.75;;
62588;SDS011;58504;48.770;9.148;2023-02-15T13:19:41;3.53;;;3.22;;
62588;SDS011;58504;48.770;9.148;2023-02-15T13:22:12;3.35;;;3.05;;
62588;SDS011;58504;48.770;9.148;2023-02-15T13:24:41;3.20;;;2.90;;
62588;SDS011;58504;48.770;9.148;2023-02-15T13:27:12;3.10;;;2.90;;
62588;SDS011;58504;48.770;9.148;2023-02-15T13:29:43;3.17;;;2.83;;
62588;SDS011;58504;48.770;9.148;2023-02-15T13:32:17;2.60;;;2.40;;
62588;SDS011;58504;48.770;9.148;2023-02-15T13:34:52;3.72;;;3.28;;
62588;SDS011;58504;48.770;9.148;2023-02-15T13:37:25;3.28;;;2.97;;
62588;SDS011;58504;48.770;9.148;2023-02-15T13:40:13;3.53;;;3.22;;
62588;SDS011;58504;48.770;9.148;2023-02-15T13:42:47;2.97;;;2.63;;
62588;SDS011;58504;48.770;9.148;2023-02-15T13:45:30;3.27;;;2.97;;
62588;SDS011;58504;48.770;9.148;2023-02-15T13:48:08;2.97;;;2.78;;
62588;SDS011;58504;48.770;9.148;2023-02-15T13:50:54;3.00;;;2.80;;
62588;SDS011;58504;48.770;9.148;2023-02-15T13:53:36;2.55;;;2.35;;
62588;SDS011;58504;48.770;9.148;2023-02-15T13:56:17;3.15;;;2.70;;
62588;SDS011;58504;48.770;9.148;2023-02-15T13:58:58;3.38;;;3.17;;
62588;SDS011;58504;48.770;9.148;2023-02-15T14:01:44;3.03;;;2.80;;
62588;SDS011;58504;48.770;9.148;2023-02-15T14:04:19;3.03;;;2.75;;
62588;SDS011;58504;48.770;9.148;2023-02-15T14:07:25;2.90;;;2.60;;
62588;SDS011;58504;48.770;9.148;2023-02-15T14:10:17;2.97;;;2.55;;
62588;SDS011;58504;48.770;9.148;2023-02-15T14:12:56;3.50;;;2.70;;
62588;SDS011;58504;48.770;9.148;2023-02-15T14:15:44;3.10;;;2.80;;
62588;SDS011;58504;48.770;9.148;2023-02-15T14:18:18;3.15;;;2.85;;
62588;SDS011;58504;48.770;9.148;2023-02-15T14:20:53;2.85;;;2.55;;
62588;SDS011;58504;48.770;9.148;2023-02-15T14:23:29;2.63;;;2.42;;
62588;SDS011;58504;48.770;9.148;2023-02-15T14:26:06;2.80;;;2.60;;
62588;SDS011;58504;48.770;9.148;2023-02-15T14:28:40;2.80;;;2.60;;
62588;SDS011;58504;48.770;9.148;2023-02-15T14:31:13;2.80;;;2.60;;
62588;SDS011;58504;48.770;9.148;2023-02-15T14:33:43;2.42;;;2.25;;
62588;SDS011;58504;48.770;9.148;2023-02-15T14:36:18;2.58;;;2.47;;
62588;SDS011;58504;48.770;9.148;2023-02-15T14:38:54;3.33;;;3.13;;
62588;SDS011;58504;48.770;9.148;2023-02-15T14:41:52;3.25;;;2.95;;
62588;SDS011;58504;48.770;9.148;2023-02-15T14:44:22;2.42;;;2.22;;
62588;SDS011;58504;48.770;9.148;2023-02-15T14:46:57;2.72;;;2.53;;
62588;SDS011;58504;48.770;9.148;2023-02-15T14:49:30;2.80;;;2.60;;
62588;SDS011;58504;48.770;9.148;2023-02-15T14:52:03;2.50;;;2.33;;
62588;SDS011;58504;48.770;9.148;2023-02-15T14:57:30;2.60;;;2.40;;
62588;SDS011;58504;48.770;9.148;2023-02-15T14:59:58;2.45;;;2.28;;
62588;SDS011;58504;48.770;9.148;2023-02-15T15:02:39;2.78;;;2.50;;
62588;SDS011;58504;48.770;9.148;2023-02-15T15:05:10;3.00;;;2.80;;
62588;SDS011;58504;48.770;9.148;2023-02-15T15:07:44;2.95;;;2.72;;
62588;SDS011;58504;48.770;9.148;2023-02-15T15:18:53;2.10;;;2.00;;
62588;SDS011;58504;48.770;9.148;2023-02-15T15:36:56;2.25;;;2.08;;
62588;SDS011;58504;48.770;9.148;2023-02-15T15:40:10;2.63;;;2.42;;
62588;SDS011;58504;48.770;9.148;2023-02-15T15:43:01;3.58;;;2.67;;
62588;SDS011;58504;48.770;9.148;2023-02-15T15:46:04;3.63;;;2.72;;
62588;SDS011;58504;48.770;9.148;2023-02-15T15:48:38;4.70;;;2.55;;
62588;SDS011;58504;48.770;9.148;2023-02-15T15:51:09;2.50;;;2.30;;
62588;SDS011;58504;48.770;9.148;2023-02-15T15:53:40;5.45;;;2.72;;
62588;SDS011;58504;48.770;9.148;2023-02-15T15:56:12;2.28;;;2.17;;